createdAt,value
2022-12-07T00:02:15.997Z,10.1
2022-12-07T00:04:45.045Z,10.1
2022-12-07T00:07:14.406Z,10.2
2022-12-07T00:09:45.114Z,10
2022-12-07T00:12:17.276Z,9.9
2022-12-07T00:14:47.762Z,9.9
2022-12-07T00:17:19.674Z,9.9
2022-12-07T00:19:50.713Z,9.9
2022-12-07T00:22:21.435Z,9.9
2022-12-07T00:24:52.641Z,9.8
2022-12-07T00:27:23.546Z,9.9
2022-12-07T00:29:54.030Z,9.8
2022-12-07T00:32:25.185Z,9.8
2022-12-07T00:34:56.447Z,9.8
2022-12-07T00:37:27.168Z,9.6
2022-12-07T00:39:59.208Z,9.6
2022-12-07T00:42:30.444Z,9.6
2022-12-07T00:45:01.685Z,9.5
2022-12-07T00:47:32.579Z,9.5
2022-12-07T00:50:04.110Z,9.5
2022-12-07T00:52:34.997Z,9.5
2022-12-07T00:55:04.280Z,9.5
2022-12-07T00:57:35.370Z,9.4
2022-12-07T01:00:06.346Z,9.4
2022-12-07T01:02:37.202Z,9.3
2022-12-07T01:05:08.171Z,9.3
2022-12-07T01:07:38.878Z,9.3
2022-12-07T01:10:09.704Z,9.2
2022-12-07T01:12:40.441Z,9.3
2022-12-07T01:15:11.736Z,9.3
2022-12-07T01:17:42.935Z,9.3
2022-12-07T01:20:14.408Z,9.3
2022-12-07T01:22:45.246Z,9.3
2022-12-07T01:25:16.087Z,9.3
2022-12-07T01:27:47.058Z,9.2
2022-12-07T01:30:18.198Z,9.1
2022-12-07T01:32:48.805Z,9.1
2022-12-07T01:35:19.719Z,9.1
2022-12-07T01:37:54.177Z,9
2022-12-07T01:40:28.981Z,9.1
2022-12-07T01:42:59.818Z,9.2
2022-12-07T01:45:29.169Z,9.2
2022-12-07T01:48:01.791Z,9.2
2022-12-07T01:50:31.720Z,9.2
2022-12-07T01:53:02.822Z,9.4
2022-12-07T01:55:34.315Z,9.3
2022-12-07T01:58:04.957Z,9.2
2022-12-07T02:00:36.543Z,9.2
2022-12-07T02:03:08.788Z,9.3
2022-12-07T02:05:39.480Z,9.3
2022-12-07T02:08:10.280Z,9.3
2022-12-07T02:10:41.598Z,9.3
2022-12-07T02:13:12.357Z,9.2
2022-12-07T02:15:43.174Z,9.2
2022-12-07T02:18:14.536Z,9.3
2022-12-07T02:20:45.580Z,9.2
2022-12-07T02:23:17.478Z,9.2
2022-12-07T02:25:48.375Z,9.1
2022-12-07T02:28:20.259Z,9
2022-12-07T02:30:51.650Z,8.9
2022-12-07T02:33:23.687Z,8.9
2022-12-07T02:35:54.533Z,8.9
2022-12-07T02:38:25.253Z,8.8
2022-12-07T02:40:56.022Z,8.8
2022-12-07T02:43:27.257Z,8.8
2022-12-07T02:46:02.418Z,8.8
2022-12-07T02:48:33.688Z,8.8
2022-12-07T02:51:05.337Z,8.8
2022-12-07T02:53:36.355Z,8.7
2022-12-07T02:56:07.633Z,8.6
2022-12-07T02:58:38.759Z,8.7
2022-12-07T03:01:09.577Z,8.6
2022-12-07T03:03:40.744Z,8.7
2022-12-07T03:06:12.700Z,8.7
2022-12-07T03:08:43.280Z,8.6
2022-12-07T03:11:17.634Z,8.6
2022-12-07T03:13:45.361Z,8.6
2022-12-07T03:16:16.746Z,8.5
2022-12-07T03:18:46.069Z,8.6
2022-12-07T03:21:16.643Z,8.5
2022-12-07T03:23:47.882Z,8.5
2022-12-07T03:26:18.893Z,8.4
2022-12-07T03:28:49.700Z,8.4
2022-12-07T03:31:21.168Z,8.4
2022-12-07T03:33:52.454Z,8.4
2022-12-07T03:36:23.520Z,8.4
2022-12-07T03:38:54.601Z,8.4
2022-12-07T03:41:25.814Z,8.4
2022-12-07T03:43:56.484Z,8.4
2022-12-07T03:46:27.787Z,8.5
2022-12-07T03:48:59.066Z,8.5
2022-12-07T03:51:30.262Z,8.4
2022-12-07T03:54:01.110Z,8.5
2022-12-07T03:56:33.082Z,8.5
2022-12-07T03:59:03.492Z,8.5
2022-12-07T04:01:35.523Z,8.4
2022-12-07T04:04:06.694Z,8.5
2022-12-07T04:06:37.465Z,8.5
2022-12-07T04:09:08.862Z,8.5
2022-12-07T04:11:40.542Z,8.6
2022-12-07T04:14:11.618Z,8.5
2022-12-07T04:16:44.607Z,8.5
2022-12-07T04:19:13.779Z,8.5
2022-12-07T04:21:44.584Z,8.3
2022-12-07T04:24:16.398Z,8.4
2022-12-07T04:26:47.867Z,8.4
2022-12-07T04:29:18.579Z,8.4
2022-12-07T04:31:50.731Z,8.5
2022-12-07T04:34:22.300Z,8.4
2022-12-07T04:36:53.034Z,8.4
2022-12-07T04:39:23.946Z,8.4
2022-12-07T04:41:55.188Z,8.4
2022-12-07T04:44:27.002Z,8.4
2022-12-07T04:46:58.367Z,8.4
2022-12-07T04:49:27.728Z,8.5
2022-12-07T04:51:58.906Z,8.4
2022-12-07T04:54:30.204Z,8.4
2022-12-07T04:57:01.030Z,8.4
2022-12-07T04:59:31.920Z,8.4
2022-12-07T05:02:02.915Z,8.4
2022-12-07T05:04:33.601Z,8.5
2022-12-07T05:07:07.486Z,8.5
2022-12-07T05:09:37.489Z,8.5
2022-12-07T05:12:07.945Z,8.4
2022-12-07T05:14:39.668Z,8.4
2022-12-07T05:17:10.664Z,8.4
2022-12-07T05:19:41.467Z,8.3
2022-12-07T05:22:12.220Z,8.4
2022-12-07T05:24:43.970Z,8.3
2022-12-07T05:27:15.195Z,8.3
2022-12-07T05:29:45.920Z,8.4
2022-12-07T05:32:16.938Z,8.4
2022-12-07T05:34:47.793Z,8.5
2022-12-07T05:37:18.767Z,8.4
2022-12-07T05:39:50.318Z,8.5
2022-12-07T05:42:21.989Z,8.5
2022-12-07T05:44:53.041Z,8.5
2022-12-07T05:47:24.109Z,8.5
2022-12-07T05:49:55.193Z,8.5
2022-12-07T05:52:25.600Z,8.5
2022-12-07T05:54:56.592Z,8.5
2022-12-07T05:57:27.450Z,8.6
2022-12-07T05:59:59.121Z,8.5
2022-12-07T06:02:29.777Z,8.6
2022-12-07T06:05:00.520Z,8.6
2022-12-07T06:07:30.169Z,8.5
2022-12-07T06:10:01.975Z,8.5
2022-12-07T06:12:32.806Z,8.5
2022-12-07T06:15:03.493Z,8.6
2022-12-07T06:17:34.546Z,8.5
2022-12-07T06:20:04.149Z,8.6
2022-12-07T06:22:35.022Z,8.4
2022-12-07T06:25:09.969Z,8.4
2022-12-07T06:27:36.672Z,8.4
2022-12-07T06:30:07.359Z,8.5
2022-12-07T06:32:38.477Z,8.5
2022-12-07T06:35:07.984Z,8.6
2022-12-07T06:37:38.824Z,8.6
2022-12-07T06:40:10.708Z,8.5
2022-12-07T06:42:41.892Z,8.5
2022-12-07T06:45:10.986Z,8.4
2022-12-07T06:47:42.011Z,8.4
2022-12-07T06:50:13.138Z,8.5
2022-12-07T06:52:44.380Z,8.5
2022-12-07T06:55:15.233Z,8.6
2022-12-07T06:57:46.066Z,8.6
2022-12-07T07:00:21.663Z,8.6
2022-12-07T07:02:48.425Z,8.6
2022-12-07T07:05:18.415Z,8.4
2022-12-07T07:08:20.649Z,8.5
2022-12-07T07:10:21.317Z,8.4
2022-12-07T07:12:55.878Z,8.4
2022-12-07T07:15:27.792Z,8.4
2022-12-07T07:18:00.661Z,8.5
2022-12-07T07:20:29.409Z,8.5
2022-12-07T07:23:00.064Z,8.6
2022-12-07T07:25:30.893Z,8.6
2022-12-07T07:28:02.382Z,8.6
2022-12-07T07:30:33.549Z,8.6
2022-12-07T07:33:04.128Z,8.7
2022-12-07T07:35:34.573Z,8.8
2022-12-07T07:38:04.944Z,8.7
2022-12-07T07:40:35.436Z,8.8
2022-12-07T07:43:06.306Z,8.8
2022-12-07T07:45:37.088Z,8.8
2022-12-07T07:48:07.494Z,8.6
2022-12-07T07:50:38.538Z,8.6
2022-12-07T07:53:09.333Z,8.6
2022-12-07T07:55:39.956Z,8.7
2022-12-07T07:58:11.098Z,8.8
2022-12-07T08:00:41.744Z,8.8
2022-12-07T08:03:13.732Z,8.8
2022-12-07T08:05:44.578Z,8.9
2022-12-07T08:08:15.266Z,8.9
2022-12-07T08:10:46.180Z,8.9
2022-12-07T08:13:16.533Z,8.8
2022-12-07T08:15:46.915Z,8.9
2022-12-07T08:18:16.100Z,8.9
2022-12-07T08:20:46.875Z,8.9
2022-12-07T08:23:17.469Z,9
2022-12-07T08:25:47.648Z,9
2022-12-07T08:28:18.666Z,9
2022-12-07T08:30:50.536Z,8.9
2022-12-07T08:33:21.836Z,8.9
2022-12-07T08:35:52.433Z,9
2022-12-07T08:38:25.067Z,9
2022-12-07T08:40:53.252Z,8.9
2022-12-07T08:43:23.957Z,9
2022-12-07T08:45:54.880Z,8.9
2022-12-07T08:48:25.907Z,9
2022-12-07T08:50:56.838Z,9
2022-12-07T08:53:27.372Z,9.1
2022-12-07T08:55:57.649Z,9.1
2022-12-07T08:58:29.005Z,9.1
2022-12-07T09:01:00.072Z,9
2022-12-07T09:03:30.768Z,9.1
2022-12-07T09:06:01.719Z,9.1
2022-12-07T09:08:32.474Z,9.1
2022-12-07T09:11:03.740Z,9.2
2022-12-07T09:13:34.155Z,9.1
2022-12-07T09:16:04.877Z,9.2
2022-12-07T09:18:35.937Z,9.1
2022-12-07T09:21:06.390Z,9.2
2022-12-07T09:23:36.777Z,9.2
2022-12-07T09:26:10.352Z,9.1
2022-12-07T09:28:37.997Z,9.2
2022-12-07T09:31:23.107Z,9.2
2022-12-07T09:33:39.131Z,9.3
2022-12-07T09:36:10.477Z,9.3
2022-12-07T09:38:41.227Z,9.3
2022-12-07T09:41:12.584Z,9.3
2022-12-07T09:43:42.825Z,9.4
2022-12-07T09:46:14.205Z,9.4
2022-12-07T09:48:44.927Z,9.3
2022-12-07T09:51:21.101Z,9.3
2022-12-07T09:53:46.637Z,9.2
2022-12-07T09:56:17.453Z,9.3
2022-12-07T09:58:47.732Z,9.3
2022-12-07T10:01:18.774Z,9.4
2022-12-07T10:03:49.263Z,9.4
2022-12-07T10:06:20.391Z,9.4
2022-12-07T10:08:51.422Z,9.5
2022-12-07T10:11:22.517Z,9.5
2022-12-07T10:13:53.332Z,9.6
2022-12-07T10:16:24.423Z,9.7
2022-12-07T10:18:55.122Z,9.7
2022-12-07T10:21:26.389Z,9.7
2022-12-07T10:23:56.751Z,9.7
2022-12-07T10:26:27.166Z,9.6
2022-12-07T10:28:58.928Z,9.6
2022-12-07T10:31:30.238Z,9.6
2022-12-07T10:34:01.326Z,9.6
2022-12-07T10:36:32.416Z,9.6
2022-12-07T10:39:03.137Z,9.6
2022-12-07T10:41:33.995Z,9.6
2022-12-07T10:44:04.830Z,9.6
2022-12-07T10:46:36.195Z,9.7
2022-12-07T10:49:06.592Z,9.7
2022-12-07T10:51:39.525Z,9.7
2022-12-07T10:54:08.323Z,9.8
2022-12-07T10:56:39.421Z,9.8
2022-12-07T10:59:10.162Z,9.8
2022-12-07T11:01:41.046Z,9.8
2022-12-07T11:04:11.761Z,9.8
2022-12-07T11:06:42.677Z,9.9
2022-12-07T11:09:13.173Z,9.9
2022-12-07T11:11:44.069Z,9.9
2022-12-07T11:14:15.735Z,9.9
2022-12-07T11:16:46.597Z,9.9
2022-12-07T11:19:16.976Z,9.9
2022-12-07T11:21:47.437Z,9.9
2022-12-07T11:24:17.929Z,9.9
2022-12-07T11:26:48.437Z,9.9
2022-12-07T11:29:18.746Z,9.9
2022-12-07T11:31:49.333Z,9.9
2022-12-07T11:34:19.947Z,9.9
2022-12-07T11:36:51.008Z,9.9
2022-12-07T11:39:22.542Z,9.9
2022-12-07T11:41:53.834Z,9.9
2022-12-07T11:44:29.385Z,9.8
2022-12-07T11:47:03.435Z,9.9
2022-12-07T11:49:33.947Z,9.8
2022-12-07T11:52:04.982Z,9.9
2022-12-07T11:54:35.188Z,9.8
2022-12-07T11:57:06.355Z,9.8
2022-12-07T11:59:37.822Z,9.7
2022-12-07T12:02:08.445Z,9.7
2022-12-07T12:04:39.298Z,9.8
2022-12-07T12:09:40.578Z,9.8
2022-12-07T12:14:44.889Z,9.8
2022-12-07T12:17:14.110Z,9.8
2022-12-07T12:19:45.213Z,9.9
2022-12-07T12:22:15.704Z,9.8
2022-12-07T12:24:46.482Z,9.8
2022-12-07T12:27:17.189Z,9.8
2022-12-07T12:29:48.335Z,9.8
2022-12-07T12:32:20.555Z,9.8
2022-12-07T12:34:51.775Z,9.7
2022-12-07T12:37:22.543Z,9.8
2022-12-07T12:39:53.572Z,9.7
2022-12-07T12:42:24.874Z,9.8
2022-12-07T12:44:56.141Z,9.8
2022-12-07T12:47:27.100Z,9.8
2022-12-07T12:49:58.939Z,9.7
2022-12-07T12:52:30.170Z,9.8
2022-12-07T12:55:01.671Z,9.8
2022-12-07T12:57:32.650Z,9.8
2022-12-07T13:00:03.820Z,9.9
2022-12-07T13:02:35.469Z,9.8
2022-12-07T13:05:07.079Z,9.8
2022-12-07T13:07:37.452Z,9.8
2022-12-07T13:10:08.520Z,9.8
2022-12-07T13:12:38.779Z,9.8
2022-12-07T13:15:10.130Z,9.7
2022-12-07T13:17:41.391Z,9.6
2022-12-07T13:20:17.336Z,9.6
2022-12-07T13:22:44.201Z,9.6
2022-12-07T13:25:21.673Z,9.6
2022-12-07T13:27:52.351Z,9.6
2022-12-07T13:30:23.615Z,9.7
2022-12-07T13:32:52.775Z,9.6
2022-12-07T13:35:24.190Z,9.6
2022-12-07T13:37:54.634Z,9.6
2022-12-07T13:40:25.961Z,9.5
2022-12-07T13:42:57.684Z,9.6
2022-12-07T13:45:29.680Z,9.6
2022-12-07T13:48:00.266Z,9.6
2022-12-07T13:50:31.465Z,9.5
2022-12-07T13:53:02.676Z,9.6
2022-12-07T13:55:33.932Z,9.6
2022-12-07T13:58:05.612Z,9.6
2022-12-07T14:00:37.554Z,9.6
2022-12-07T14:03:08.513Z,9.6
2022-12-07T14:05:39.958Z,9.5
2022-12-07T14:08:11.514Z,9.6
2022-12-07T14:10:42.813Z,9.5
2022-12-07T14:13:14.383Z,9.4
2022-12-07T14:15:46.763Z,9.4
2022-12-07T14:18:18.677Z,9.4
2022-12-07T14:20:49.608Z,9.4
2022-12-07T14:23:21.421Z,9.4
2022-12-07T14:25:52.870Z,9.4
2022-12-07T14:28:24.541Z,9.2
2022-12-07T14:30:55.593Z,9.2
2022-12-07T14:33:26.650Z,9.3
2022-12-07T14:35:57.962Z,9.2
2022-12-07T14:38:29.427Z,9.3
2022-12-07T14:41:01.016Z,9.3
2022-12-07T14:43:32.105Z,9.3
2022-12-07T14:46:02.896Z,9.3
2022-12-07T14:53:42.476Z,9.3
2022-12-07T14:56:15.026Z,9.2
2022-12-07T14:58:46.313Z,9.1
2022-12-07T15:01:17.543Z,9.1
2022-12-07T15:03:49.215Z,9.1
2022-12-07T15:06:20.824Z,9.1
2022-12-07T15:08:53.253Z,9.1
2022-12-07T15:11:24.715Z,9
2022-12-07T15:13:55.980Z,9.1
2022-12-07T15:16:30.753Z,9
2022-12-07T15:19:26.591Z,9.1
2022-12-07T15:21:31.428Z,9.1
2022-12-07T15:24:03.584Z,9
2022-12-07T15:26:34.515Z,9
2022-12-07T15:29:06.185Z,9.1
2022-12-07T15:34:09.050Z,9.2
2022-12-07T15:36:40.215Z,9.1
2022-12-07T15:39:15.014Z,9.1
2022-12-07T15:41:41.804Z,9.1
2022-12-07T15:44:13.085Z,9.1
2022-12-07T15:46:45.569Z,9.1
2022-12-07T15:49:16.839Z,9.1
2022-12-07T15:51:47.915Z,9.1
2022-12-07T15:54:19.977Z,9.1
2022-12-07T15:56:51.616Z,9
2022-12-07T15:59:22.538Z,9
2022-12-07T16:01:53.572Z,9
2022-12-07T16:04:24.672Z,9
2022-12-07T16:06:53.939Z,8.9
2022-12-07T16:09:25.912Z,8.9
2022-12-07T16:11:57.265Z,8.8
2022-12-07T16:14:29.023Z,8.9
2022-12-07T16:17:00.209Z,8.8
2022-12-07T16:19:30.962Z,8.8
2022-12-07T16:22:02.645Z,8.8
2022-12-07T16:24:33.388Z,8.6
2022-12-07T16:27:05.047Z,8.6
2022-12-07T16:29:36.928Z,8.6
2022-12-07T16:32:08.080Z,8.6
2022-12-07T16:34:38.872Z,8.6
2022-12-07T16:37:09.858Z,8.5
2022-12-07T16:39:40.839Z,8.5
2022-12-07T16:42:12.818Z,8.5
2022-12-07T16:44:45.111Z,8.5
2022-12-07T16:47:16.263Z,8.4
2022-12-07T16:49:47.416Z,8.3
2022-12-07T16:52:20.591Z,8.3
2022-12-07T16:54:49.919Z,8.3
2022-12-07T16:57:23.263Z,8.4
2022-12-07T16:59:52.067Z,8.5
2022-12-07T17:02:23.430Z,8.5
2022-12-07T17:04:55.044Z,8.4
2022-12-07T17:07:27.027Z,8.5
2022-12-07T17:09:57.849Z,8.5
2022-12-07T17:12:30.205Z,8.5
2022-12-07T17:15:02.915Z,8.6
2022-12-07T17:17:33.307Z,8.4
2022-12-07T17:20:04.853Z,8.4
2022-12-07T17:22:36.623Z,8.5
2022-12-07T17:25:07.431Z,8.4
2022-12-07T17:27:38.107Z,8.4
2022-12-07T17:30:09.110Z,8.5
2022-12-07T17:32:38.421Z,8.4
2022-12-07T17:35:09.646Z,8.5
2022-12-07T17:37:42.137Z,8.5
2022-12-07T17:40:10.640Z,8.5
2022-12-07T17:42:41.915Z,8.6
2022-12-07T17:45:11.738Z,8.6
2022-12-07T17:47:42.723Z,8.6
2022-12-07T17:50:14.033Z,8.6
2022-12-07T17:52:47.799Z,8.6
2022-12-07T17:55:17.183Z,8.6
2022-12-07T17:57:48.013Z,8.6
2022-12-07T18:02:53.022Z,8.6
2022-12-07T18:05:22.304Z,8.5
2022-12-07T18:07:53.490Z,8.4
2022-12-07T18:10:24.321Z,8.4
2022-12-07T18:12:55.818Z,8.4
2022-12-07T18:15:26.980Z,8.4
2022-12-07T18:17:58.016Z,8.4
2022-12-07T18:20:30.133Z,8.4
2022-12-07T18:23:01.411Z,8.3
2022-12-07T18:25:32.553Z,8.3
2022-12-07T18:28:03.319Z,8.3
2022-12-07T18:31:12.953Z,8.2
2022-12-07T18:33:08.626Z,8.2
2022-12-07T18:35:39.629Z,8.3
2022-12-07T18:38:10.943Z,8.4
2022-12-07T18:40:41.857Z,8.3
2022-12-07T18:43:13.124Z,8.3
2022-12-07T18:45:45.492Z,8.3
2022-12-07T18:48:16.909Z,8.3
2022-12-07T18:50:48.083Z,8.3
2022-12-07T18:53:19.378Z,8.3
2022-12-07T18:55:50.283Z,8.4
2022-12-07T18:58:20.884Z,8.4
2022-12-07T19:00:52.240Z,8.4
2022-12-07T19:03:23.231Z,8.4
2022-12-07T19:05:54.844Z,8.4
2022-12-07T19:08:25.874Z,8.4
2022-12-07T19:10:56.818Z,8.3
2022-12-07T19:13:26.347Z,8.3
2022-12-07T19:15:57.812Z,8.3
2022-12-07T19:18:32.103Z,8.3
2022-12-07T19:21:02.992Z,8.4
2022-12-07T19:23:34.241Z,8.3
2022-12-07T19:26:05.300Z,8.4
2022-12-07T19:28:36.588Z,8.4
2022-12-07T19:31:07.669Z,8.4
2022-12-07T19:33:38.889Z,8.5
2022-12-07T19:36:10.298Z,8.4
2022-12-07T19:38:41.596Z,8.4
2022-12-07T19:41:12.489Z,8.4
2022-12-07T19:43:43.766Z,8.4
2022-12-07T19:46:14.870Z,8.4
2022-12-07T19:48:45.798Z,8.4
2022-12-07T19:51:16.941Z,8.5
2022-12-07T19:53:47.258Z,8.6
2022-12-07T19:56:18.477Z,8.7
2022-12-07T19:58:53.928Z,8.6
2022-12-07T20:01:24.727Z,8.7
2022-12-07T20:03:56.110Z,8.8
2022-12-07T20:06:27.155Z,8.8
2022-12-07T20:08:59.040Z,8.7
2022-12-07T20:11:29.972Z,8.8
2022-12-07T20:14:01.961Z,8.7
2022-12-07T20:16:32.754Z,8.7
2022-12-07T20:19:05.723Z,8.5
2022-12-07T20:21:37.414Z,8.5
2022-12-07T20:24:08.479Z,8.5
2022-12-07T20:26:39.721Z,8.6
2022-12-07T20:29:14.965Z,8.7
2022-12-07T20:31:42.114Z,8.7
2022-12-07T20:34:14.083Z,8.8
2022-12-07T20:36:45.068Z,8.8
2022-12-07T20:39:16.015Z,8.8
2022-12-07T20:41:52.026Z,8.8
2022-12-07T20:44:22.054Z,8.8
2022-12-07T20:46:58.589Z,8.8
2022-12-07T20:49:29.786Z,8.8
2022-12-07T20:52:00.914Z,8.7
2022-12-07T20:54:32.858Z,8.8
2022-12-07T20:57:03.832Z,8.7
2022-12-07T20:59:39.735Z,8.8
2022-12-07T21:02:05.978Z,8.8
2022-12-07T21:04:37.113Z,8.8
2022-12-07T21:07:08.094Z,8.7
2022-12-07T21:09:38.886Z,8.8
2022-12-07T21:12:10.138Z,8.7
2022-12-07T21:14:41.538Z,8.7
2022-12-07T21:17:12.588Z,8.8
2022-12-07T21:19:44.291Z,8.7
2022-12-07T21:22:15.334Z,8.7
2022-12-07T21:24:46.445Z,8.6
2022-12-07T21:27:17.870Z,8.5
2022-12-07T21:29:54.027Z,8.5
2022-12-07T21:32:20.870Z,8.6
2022-12-07T21:34:52.016Z,8.6
2022-12-07T21:37:24.083Z,8.6
2022-12-07T21:39:54.816Z,8.7
2022-12-07T21:42:26.980Z,8.7
2022-12-07T21:44:57.955Z,8.6
2022-12-07T21:47:27.693Z,8.5
2022-12-07T21:49:59.113Z,8.5
2022-12-07T21:52:30.025Z,8.5
2022-12-07T21:55:05.364Z,8.4
2022-12-07T21:57:36.462Z,8.4
2022-12-07T22:00:08.554Z,8.4
2022-12-07T22:02:39.757Z,8.5
2022-12-07T22:05:10.853Z,8.5
2022-12-07T22:07:42.254Z,8.5
2022-12-07T22:10:13.643Z,8.4
2022-12-07T22:12:44.705Z,8.5
2022-12-07T22:15:15.792Z,8.5
2022-12-07T22:17:49.276Z,8.5
2022-12-07T22:20:20.304Z,8.5
2022-12-07T22:22:51.256Z,8.5
2022-12-07T22:25:22.557Z,8.3
2022-12-07T22:27:53.996Z,8.3
2022-12-07T22:30:25.171Z,8.2
2022-12-07T22:32:56.311Z,8.2
2022-12-07T22:35:27.497Z,8.2
2022-12-07T22:37:59.279Z,8.2
2022-12-07T22:40:30.844Z,8.1
2022-12-07T22:43:01.543Z,8.2
2022-12-07T22:45:32.788Z,8.1
2022-12-07T22:48:02.850Z,8
2022-12-07T22:50:33.925Z,8.1
2022-12-07T22:53:05.121Z,8
2022-12-07T22:55:36.314Z,8
2022-12-07T22:58:08.025Z,8
2022-12-07T23:00:39.330Z,8
2022-12-07T23:03:10.632Z,7.9
2022-12-07T23:05:42.298Z,7.9
2022-12-07T23:08:13.237Z,8.1
2022-12-07T23:10:44.477Z,8.1
2022-12-07T23:13:15.377Z,8.1
2022-12-07T23:15:46.479Z,8.2
2022-12-07T23:18:16.934Z,8.2
2022-12-07T23:20:47.843Z,8.2
2022-12-07T23:23:17.183Z,8.2
2022-12-07T23:25:47.852Z,8.2
2022-12-07T23:28:19.401Z,8.2
2022-12-07T23:30:49.864Z,8.2
2022-12-07T23:33:20.439Z,8.3
2022-12-07T23:35:51.008Z,8.2
2022-12-07T23:38:21.415Z,8.3
2022-12-07T23:40:51.662Z,8.3
2022-12-07T23:43:23.215Z,8.4
2022-12-07T23:45:54.232Z,8.3
2022-12-07T23:48:24.497Z,8.3
2022-12-07T23:50:55.675Z,8.2
2022-12-07T23:53:26.693Z,8.3
2022-12-07T23:55:57.213Z,8.3
2022-12-07T23:58:29.192Z,8.3
